This is the latest recevied weather packets stored in our database for station/object KK7DS. If no packets are shown the sender has not sent any weather packets the latest 10 day(s).
| Time | Temp. | Humidity | Pressure | Rain* | Wind** | Luminosity | Snow |
|---|---|---|---|---|---|---|---|
| 1777776899 | 16.67° C | 79% | 1012.7 hPa | 0 mm | - | - | - |
| 1777776310 | 16.67° C | 79% | 1012.9 hPa | 0 mm | - | - | - |
| 1777775828 | 17.22° C | 78% | 1012.8 hPa | 0 mm | - | - | - |
| 1777775277 | 17.22° C | 77% | 1012.7 hPa | 0 mm | - | - | - |
| 1777774224 | 18.89° C | 73% | 1012.8 hPa | 0 mm | - | - | - |
| 1777773655 | 20° C | 68% | 1012.5 hPa | 0 mm | - | - | - |
| 1777773175 | 20.56° C | 66% | 1012.1 hPa | 0 mm | - | - | - |
| 1777772665 | 20.56° C | 66% | 1012 hPa | 0 mm | - | - | - |
| 1777772123 | 20.56° C | 65% | 1012.1 hPa | 0 mm | - | - | - |
| 1777771567 | 21.11° C | 64% | 1012.1 hPa | 0 mm | - | - | - |
| 1777771045 | 21.11° C | 64% | 1012 hPa | 0 mm | - | - | - |
| 1777770476 | 20.56° C | 65% | 1012 hPa | 0 mm | - | - | - |
| 1777769915 | 21.11° C | 63% | 1012 hPa | 0 mm | - | - | - |
| 1777768870 | 21.11° C | 63% | 1012.1 hPa | 0 mm | - | - | - |
| 1777768337 | 21.11° C | 63% | 1012 hPa | 0 mm | - | - | - |
| 1777767757 | 21.11° C | 63% | 1012 hPa | 0 mm | - | - | - |
| 1777767245 | 21.11° C | 62% | 1012 hPa | 0 mm | - | - | - |
| 1777766765 | 20.56° C | 62% | 1012.1 hPa | 0 mm | - | - | - |
| 1777766180 | 20.56° C | 63% | 1012.1 hPa | 0 mm | - | - | - |
| 1777765665 | 20° C | 65% | 1012.3 hPa | 0 mm | - | - | - |
| 1777765074 | 20.56° C | 65% | 1012.4 hPa | 0 mm | - | - | - |
| 1777764525 | 20.56° C | 64% | 1012.6 hPa | 0 mm | - | - | - |
| 1777763422 | 20.56° C | 64% | 1012.6 hPa | 0 mm | - | - | - |
| 1777762875 | 20.56° C | 64% | 1012.8 hPa | 0 mm | - | - | - |
| 1777762375 | 20° C | 65% | 1012.9 hPa | 0 mm | - | - | - |
* Rain latest hour (hover to see other rain measurements)
** Current wind speed in m/s (hover to see current wind gust speed)